Time;durP1;ratioP1;P1;durP2;ratioP2;P2;SDS_P1;SDS_P2;PMS_P1;PMS_P2;Temp;Humidity;BMP_temperature;BMP_pressure;BME280_temperature;BME280_humidity;BME280_pressure;Samples;Min_cycle;Max_cycle;Signal;HPM_P1;HPM_P2
2023/08/22 00:01:11;;;;;;;13.27;11.67;;;;;;;-141.97;50.25;47355.72;5021390;28;20171;-86
2023/08/22 00:03:36;;;;;;;15.80;11.37;;;;;;;-141.97;49.88;47265.38;5022215;28;20186;-86
2023/08/22 00:06:02;;;;;;;14.67;11.63;;;;;;;-141.97;50.38;47374.94;5019334;28;20163;-84
2023/08/22 00:08:27;;;;;;;17.43;12.43;;;;;;;-141.97;50.95;47292.28;5013706;28;20159;-85
2023/08/22 00:10:54;;;;;;;16.70;11.50;;;;;;;-141.97;51.07;47361.47;5013921;28;20174;-85
2023/08/22 00:13:19;;;;;;;13.23;11.40;;;;;;;-141.97;51.24;47351.88;5013461;28;20588;-84
2023/08/22 00:15:46;;;;;;;16.30;12.00;;;;;;;-141.97;51.39;47422.97;5013277;28;20171;-86
2023/08/22 00:18:12;;;;;;;15.07;11.43;;;;;;;-141.97;50.99;47530.59;5013157;28;20167;-85
2023/08/22 00:20:37;;;;;;;14.40;12.20;;;;;;;-141.97;50.61;47396.06;5012877;28;20171;-86
2023/08/22 00:23:06;;;;;;;16.33;13.03;;;;;;;-141.97;50.31;47336.50;5012911;28;20198;-85
2023/08/22 00:25:32;;;;;;;19.30;13.10;;;;;;;-141.97;50.50;47547.91;5012380;28;20174;-86
2023/08/22 00:27:57;;;;;;;17.73;12.77;;;;;;;-141.97;51.25;47288.44;5013165;28;20161;-87
2023/08/22 00:30:23;;;;;;;18.97;12.67;;;;;;;-141.97;51.83;47298.06;5013506;28;20178;-87
2023/08/22 00:32:48;;;;;;;15.83;12.70;;;;;;;-141.97;52.25;47257.69;5030462;28;20182;-87
2023/08/22 00:35:14;;;;;;;18.37;12.57;;;;;;;-141.97;53.04;47336.50;5022162;28;20185;-86
2023/08/22 00:37:39;;;;;;;17.33;12.00;;;;;;;-141.97;53.99;47576.75;5012052;28;20183;-86
2023/08/22 00:40:06;;;;;;;15.83;12.13;;;;;;;-141.97;54.77;47278.84;5013078;28;20162;-84
2023/08/22 00:42:32;;;;;;;15.37;11.40;;;;;;;-141.97;54.80;47390.31;5012508;28;20182;-84
2023/08/22 00:44:58;;;;;;;15.07;12.20;;;;;;;-141.97;55.16;47403.75;5011720;28;20574;-86
2023/08/22 00:47:24;;;;;;;16.17;11.60;;;;;;;-141.97;55.17;47392.22;5012526;28;20654;-85
2023/08/22 00:49:49;;;;;;;15.43;11.60;;;;;;;-141.97;54.89;47557.53;5012567;28;20163;-85
2023/08/22 00:52:15;;;;;;;18.43;11.33;;;;;;;-141.97;55.12;47419.13;5012472;28;20182;-87
2023/08/22 00:54:41;;;;;;;17.23;11.83;;;;;;;-141.97;54.95;47388.38;5012478;28;20175;-84
2023/08/22 00:57:07;;;;;;;15.53;11.93;;;;;;;-141.97;55.67;47334.56;5012328;28;20631;-84
2023/08/22 00:59:33;;;;;;;13.90;11.33;;;;;;;-141.97;55.65;47390.31;5012432;28;20169;-85
2023/08/22 01:01:58;;;;;;;15.70;10.97;;;;;;;-141.97;55.68;47284.59;5010326;28;20175;-84
2023/08/22 01:04:23;;;;;;;13.33;11.57;;;;;;;-141.97;55.43;47388.38;5012067;28;20198;-85
2023/08/22 01:07:03;;;;;;;13.50;11.40;;;;;;;-141.97;55.23;47386.47;5011924;28;20657;-85
2023/08/22 01:10:00;;;;;;;15.80;11.33;;;;;;;-141.97;55.63;47323.03;5012283;28;20246;-84
2023/08/22 01:13:03;;;;;;;20.00;11.70;;;;;;;-141.97;56.10;47386.47;4970785;28;20271;-86
2023/08/22 01:15:33;;;;;;;14.97;11.47;;;;;;;-141.97;56.32;47301.91;4954706;28;20632;-85
2023/08/22 01:18:03;;;;;;;15.37;11.97;;;;;;;-141.97;56.48;47401.84;4954918;28;20191;-85
2023/08/22 01:20:29;;;;;;;17.13;11.67;;;;;;;-141.97;55.90;47415.28;4970801;28;20168;-85
2023/08/22 01:22:55;;;;;;;14.20;11.50;;;;;;;-141.97;55.57;47384.53;4970013;28;20223;-84
2023/08/22 01:25:20;;;;;;;16.30;11.60;;;;;;;-141.97;55.03;47494.09;4970886;28;20164;-84
2023/08/22 01:27:54;;;;;;;14.57;11.47;;;;;;;-141.97;55.21;47382.63;4954370;28;20230;-84
2023/08/22 01:30:31;;;;;;;14.90;11.57;;;;;;;-141.97;55.50;47407.59;4970617;28;20272;-84
2023/08/22 01:33:05;;;;;;;15.63;11.47;;;;;;;-141.97;56.37;47357.63;4970776;28;20243;-84
2023/08/22 01:35:32;;;;;;;14.37;11.57;;;;;;;-141.97;56.37;47457.56;4969450;28;20206;-84
2023/08/22 01:37:59;;;;;;;17.30;12.07;;;;;;;-141.97;56.97;47388.38;4954633;28;20180;-85
2023/08/22 01:40:24;;;;;;;14.27;12.00;;;;;;;-141.97;57.69;47109.72;4970385;28;20176;-83
2023/08/22 01:42:50;;;;;;;15.10;12.20;;;;;;;-141.97;58.10;47223.09;4970375;28;20347;-85
2023/08/22 01:45:16;;;;;;;15.30;12.07;;;;;;;-141.97;57.74;47132.78;4970354;28;20251;-85
2023/08/22 01:47:41;;;;;;;15.67;11.70;;;;;;;-141.97;57.15;47553.69;4970781;28;20213;-84
2023/08/22 01:50:07;;;;;;;16.60;12.40;;;;;;;-141.97;57.03;47422.97;5009640;28;20252;-83
2023/08/22 01:52:33;;;;;;;16.60;12.10;;;;;;;-141.97;56.56;47413.38;5017319;28;20226;-85
2023/08/22 01:54:58;;;;;;;15.07;11.70;;;;;;;-141.97;56.66;47403.75;5019389;28;20178;-85
2023/08/22 01:57:23;;;;;;;13.93;11.60;;;;;;;-141.97;57.06;47396.06;5015237;28;20583;-84
2023/08/22 01:59:49;;;;;;;14.00;11.50;;;;;;;-141.97;57.23;47271.16;5012531;28;20554;-84
2023/08/22 02:02:14;;;;;;;13.87;11.93;;;;;;;-141.97;57.34;47323.03;5012379;28;20166;-83
2023/08/22 02:04:40;;;;;;;17.40;12.43;;;;;;;-141.97;57.35;47253.84;5013682;28;20651;-84
2023/08/22 02:07:05;;;;;;;16.93;12.10;;;;;;;-141.97;57.67;47451.81;5022246;28;20262;-85
2023/08/22 02:09:30;;;;;;;16.00;12.30;;;;;;;-141.97;57.44;47203.88;5021399;28;20158;-85
2023/08/22 02:11:56;;;;;;;14.43;12.13;;;;;;;-141.97;56.82;47522.91;5026389;28;20189;-84
2023/08/22 02:14:21;;;;;;;15.07;12.30;;;;;;;-141.97;56.98;47384.53;5012300;28;20316;-86
2023/08/22 02:16:47;;;;;;;15.93;11.93;;;;;;;-141.97;57.46;47388.38;5011411;28;20166;-85
2023/08/22 02:19:12;;;;;;;17.83;12.43;;;;;;;-141.97;57.43;47492.16;5011165;28;20171;-85
2023/08/22 02:21:37;;;;;;;15.20;12.50;;;;;;;-141.97;57.83;47190.44;5010845;28;21012;-85
2023/08/22 02:24:03;;;;;;;14.20;12.00;;;;;;;-141.97;57.89;47286.53;5010964;28;20206;-84
2023/08/22 02:26:30;;;;;;;16.80;12.13;;;;;;;-141.97;58.00;47486.41;5011054;28;20607;-84
2023/08/22 02:28:56;;;;;;;14.80;11.67;;;;;;;-141.97;58.56;47299.97;5008771;28;20233;-84
2023/08/22 02:31:21;;;;;;;16.93;12.40;;;;;;;-141.97;58.70;47219.25;5030636;28;20173;-85
2023/08/22 02:33:47;;;;;;;18.13;12.63;;;;;;;-141.97;58.73;47178.91;5010361;28;20177;-86
2023/08/22 02:36:12;;;;;;;14.87;11.80;;;;;;;-141.97;58.68;47530.59;5015805;28;20185;-86
2023/08/22 02:38:37;;;;;;;14.43;12.13;;;;;;;-141.97;59.11;47242.31;5018165;28;20182;-84
2023/08/22 02:41:03;;;;;;;15.87;12.27;;;;;;;-141.97;59.53;47269.22;5023531;28;20182;-84
2023/08/22 02:43:30;;;;;;;16.60;12.27;;;;;;;-141.97;59.61;47447.97;5018742;28;20198;-82
2023/08/22 02:45:55;;;;;;;17.90;12.93;;;;;;;-141.97;59.29;47292.28;5014342;28;20202;-85
2023/08/22 02:48:21;;;;;;;16.60;12.67;;;;;;;-141.97;59.22;47494.09;5014999;28;20190;-84
2023/08/22 02:50:49;;;;;;;15.40;12.43;;;;;;;-141.97;58.92;47407.59;5013245;28;20573;-85
2023/08/22 02:53:15;;;;;;;19.30;12.57;;;;;;;-141.97;58.96;47392.22;5013245;28;20226;-86
2023/08/22 02:55:41;;;;;;;17.13;12.53;;;;;;;-141.97;58.98;47422.97;5014524;28;20534;-85
2023/08/22 02:58:07;;;;;;;16.57;12.43;;;;;;;-141.97;59.20;47315.34;5014946;28;20166;-85
2023/08/22 03:00:36;;;;;;;17.80;12.60;;;;;;;-141.97;59.04;47407.59;5014962;28;20163;-84
2023/08/22 03:03:03;;;;;;;17.30;12.50;;;;;;;-141.97;58.56;47415.28;5014726;28;20197;-84
2023/08/22 03:05:28;;;;;;;17.93;12.87;;;;;;;-141.97;58.55;47317.28;5014645;28;20189;-85
2023/08/22 03:07:54;;;;;;;15.70;12.27;;;;;;;-141.97;57.74;47319.19;5014810;28;20548;-84
2023/08/22 03:10:19;;;;;;;17.20;13.03;;;;;;;-141.97;58.00;47417.22;5018355;28;20185;-84
2023/08/22 03:12:46;;;;;;;17.27;13.23;;;;;;;-141.97;57.75;47488.31;5036818;28;20179;-84
2023/08/22 03:15:12;;;;;;;16.57;12.80;;;;;;;-141.97;58.02;47430.66;5015662;28;20288;-85
2023/08/22 03:17:37;;;;;;;18.93;13.17;;;;;;;-141.97;58.14;47344.19;5013732;28;20162;-84
2023/08/22 03:20:05;;;;;;;15.53;12.93;;;;;;;-141.97;58.54;47419.13;5014556;28;20177;-84
2023/08/22 03:22:30;;;;;;;18.03;12.63;;;;;;;-141.97;59.48;47549.84;5014701;28;20159;-84
2023/08/22 03:24:55;;;;;;;21.10;13.57;;;;;;;-141.97;60.27;47486.41;5014521;28;20258;-85
2023/08/22 03:27:21;;;;;;;17.13;12.93;;;;;;;-141.97;60.72;47417.22;5013268;28;20174;-85
2023/08/22 03:29:46;;;;;;;16.83;13.13;;;;;;;-141.97;60.06;47422.97;5014382;28;20198;-85
2023/08/22 03:32:12;;;;;;;17.23;13.03;;;;;;;-141.97;59.39;47436.44;5014232;28;20595;-85
2023/08/22 03:34:37;;;;;;;16.53;13.13;;;;;;;-141.97;59.64;47572.91;5013979;28;20253;-85
2023/08/22 03:37:03;;;;;;;18.80;12.87;;;;;;;-141.97;60.27;47426.81;5022969;28;20599;-84
2023/08/22 03:39:28;;;;;;;16.90;13.20;;;;;;;-141.97;60.32;47417.22;5008929;28;20238;-84
2023/08/22 03:41:53;;;;;;;15.97;13.00;;;;;;;-141.97;60.21;47223.09;5019688;28;20181;-84
2023/08/22 03:44:19;;;;;;;17.30;12.77;;;;;;;-141.97;60.15;47619.03;5013690;28;20221;-84
2023/08/22 03:46:44;;;;;;;15.57;12.77;;;;;;;-141.97;60.10;47428.75;5010246;28;20163;-84
2023/08/22 03:49:10;;;;;;;18.37;12.60;;;;;;;-141.97;60.21;47355.72;5011491;28;20179;-85
2023/08/22 03:51:35;;;;;;;16.43;13.20;;;;;;;-141.97;60.62;47374.94;5013874;28;20166;-85
2023/08/22 03:54:00;;;;;;;18.83;12.83;;;;;;;-141.97;60.30;47405.69;4997084;28;20231;-84
2023/08/22 03:56:26;;;;;;;19.67;13.20;;;;;;;-141.97;60.40;47323.03;4994855;28;20608;-84
2023/08/22 03:58:51;;;;;;;19.70;13.10;;;;;;;-141.97;60.64;47430.66;4997666;28;20175;-84
2023/08/22 04:01:17;;;;;;;20.07;13.20;;;;;;;-141.97;60.03;47632.47;5013393;28;20649;-85
2023/08/22 04:03:42;;;;;;;17.33;13.43;;;;;;;-141.97;59.92;47426.81;5013750;28;20190;-86
2023/08/22 04:06:08;;;;;;;16.53;13.23;;;;;;;-141.97;59.95;47349.94;5014584;28;20616;-85
2023/08/22 04:08:33;;;;;;;16.60;13.30;;;;;;;-141.97;60.09;47599.81;5013378;28;20266;-85
2023/08/22 04:10:58;;;;;;;17.67;13.13;;;;;;;-141.97;59.69;47428.75;5017943;28;20214;-86
2023/08/22 04:13:24;;;;;;;17.97;13.37;;;;;;;-141.97;59.84;47334.56;5028925;28;20217;-85
2023/08/22 04:15:49;;;;;;;19.50;13.40;;;;;;;-141.97;59.05;47346.09;5027645;28;20167;-86
2023/08/22 04:18:15;;;;;;;20.30;13.43;;;;;;;-141.97;58.36;47348.03;5022334;28;20174;-85
2023/08/22 04:20:43;;;;;;;25.63;14.80;;;;;;;-141.97;57.92;47374.94;5016472;28;20206;-85
2023/08/22 04:23:09;;;;;;;19.90;13.73;;;;;;;-141.97;57.56;47449.88;5014413;28;20698;-86
2023/08/22 04:25:35;;;;;;;23.17;14.13;;;;;;;-141.97;57.26;47182.75;5012162;28;20570;-85
2023/08/22 04:28:00;;;;;;;17.17;12.97;;;;;;;-141.97;57.58;47280.75;5013388;28;20159;-85
2023/08/22 04:30:26;;;;;;;19.00;13.30;;;;;;;-141.97;58.24;47359.56;5011743;28;20178;-86
2023/08/22 04:32:51;;;;;;;21.27;13.77;;;;;;;-141.97;58.56;47630.56;5011688;28;20610;-85
2023/08/22 04:35:17;;;;;;;19.67;14.13;;;;;;;-141.97;58.53;47344.19;5011701;28;20174;-85
2023/08/22 04:37:42;;;;;;;21.77;13.97;;;;;;;-141.97;58.75;47426.81;5013137;28;20163;-86
2023/08/22 04:40:08;;;;;;;21.33;13.93;;;;;;;-141.97;59.03;47403.75;5012353;28;21097;-86
2023/08/22 04:42:34;;;;;;;18.90;14.03;;;;;;;-141.97;58.86;47134.69;5013241;28;20599;-87
2023/08/22 04:45:00;;;;;;;20.77;13.90;;;;;;;-141.97;58.36;47338.41;5013073;28;20159;-86
2023/08/22 04:47:25;;;;;;;19.30;12.70;;;;;;;-141.97;58.24;47346.09;5012527;28;20167;-85
2023/08/22 04:49:50;;;;;;;15.20;12.73;;;;;;;-141.97;58.03;47403.75;5012134;28;20179;-85
2023/08/22 04:52:16;;;;;;;16.90;13.30;;;;;;;-141.97;57.95;47332.66;5012495;28;20167;-85
2023/08/22 04:54:42;;;;;;;17.10;13.23;;;;;;;-141.97;57.79;47196.19;5011531;28;20170;-86
2023/08/22 04:57:07;;;;;;;20.97;13.40;;;;;;;-141.97;57.58;47442.19;5010921;28;20245;-86
2023/08/22 04:59:33;;;;;;;25.53;13.90;;;;;;;-141.97;57.77;47522.91;5012864;28;20600;-86
2023/08/22 05:01:58;;;;;;;23.17;13.60;;;;;;;-141.97;57.63;47209.66;5012565;28;20217;-86
2023/08/22 05:04:24;;;;;;;19.50;13.37;;;;;;;-141.97;57.02;47422.97;5010824;28;20202;-86
2023/08/22 05:06:49;;;;;;;18.53;13.27;;;;;;;-141.97;56.85;47645.94;5012702;28;20167;-86
2023/08/22 05:09:16;;;;;;;21.20;13.17;;;;;;;-141.97;56.83;47261.53;5012182;28;20159;-86
2023/08/22 05:11:42;;;;;;;17.10;12.90;;;;;;;-141.97;56.42;47390.31;5011906;28;20182;-84
2023/08/22 05:14:08;;;;;;;19.93;12.73;;;;;;;-141.97;56.10;47315.34;5011075;28;20609;-85
2023/08/22 05:16:34;;;;;;;20.60;13.20;;;;;;;-141.97;55.25;47521.00;5012464;28;20159;-87
2023/08/22 05:18:59;;;;;;;17.17;12.80;;;;;;;-141.97;55.16;47182.75;5011981;28;20170;-85
2023/08/22 05:21:25;;;;;;;18.33;12.60;;;;;;;-141.97;55.20;47644.00;5011728;28;20300;-87
2023/08/22 05:23:50;;;;;;;18.37;12.40;;;;;;;-141.97;54.65;47250.00;5012486;28;20329;-84
2023/08/22 05:26:17;;;;;;;18.93;12.53;;;;;;;-141.97;54.10;47421.06;5010497;28;20167;-84
2023/08/22 05:28:42;;;;;;;19.40;12.53;;;;;;;-141.97;53.82;47421.06;5010594;28;20167;-84
2023/08/22 05:31:07;;;;;;;19.27;12.17;;;;;;;-141.97;52.75;47392.22;5011757;28;20162;-85
2023/08/22 05:33:33;;;;;;;19.33;12.10;;;;;;;-141.97;52.25;47674.78;5012853;28;20178;-84
2023/08/22 05:35:58;;;;;;;15.27;11.70;;;;;;;-141.97;51.59;47380.69;5012776;28;20229;-83
2023/08/22 05:38:24;;;;;;;13.57;11.43;;;;;;;-141.97;51.06;47321.13;5011439;28;20209;-83
2023/08/22 05:40:49;;;;;;;15.20;12.23;;;;;;;-141.97;50.72;47384.53;5014066;28;20173;-84
2023/08/22 05:43:15;;;;;;;14.43;11.33;;;;;;;-141.97;50.05;47357.63;5013708;28;20245;-84
2023/08/22 05:45:41;;;;;;;14.33;11.10;;;;;;;-141.97;50.35;47394.16;5012028;28;20194;-85
2023/08/22 05:48:08;;;;;;;16.07;11.83;;;;;;;-141.97;49.86;47359.56;5024873;28;20237;-84
2023/08/22 05:50:39;;;;;;;16.70;11.80;;;;;;;-141.97;48.71;47269.22;5030064;28;20194;-84
2023/08/22 05:53:05;;;;;;;15.03;11.53;;;;;;;-141.97;48.34;47388.38;5015816;28;20776;-84
2023/08/22 05:55:31;;;;;;;17.07;12.07;;;;;;;-141.97;47.83;47144.31;5013770;28;20190;-89
2023/08/22 05:57:56;;;;;;;16.50;11.43;;;;;;;-141.97;47.57;47253.84;5012161;28;20160;-82
2023/08/22 06:00:22;;;;;;;14.27;11.65;;;;;;;-141.97;46.77;47361.47;5011776;28;20226;-83
2023/08/22 06:02:47;;;;;;;14.82;11.65;;;;;;;-141.97;45.96;47561.38;5010831;28;20165;-84
2023/08/22 06:05:13;;;;;;;16.77;11.30;;;;;;;-141.97;46.13;47551.75;5010449;28;20165;-81
2023/08/22 06:07:38;;;;;;;13.52;11.07;;;;;;;-141.97;45.19;47323.03;5015310;28;20170;-80
2023/08/22 06:10:04;;;;;;;16.52;11.65;;;;;;;-141.97;45.70;47282.69;5013268;28;20185;-81
2023/08/22 06:12:29;;;;;;;14.65;11.57;;;;;;;-141.97;45.12;47357.63;5011344;28;20208;-82
2023/08/22 06:14:54;;;;;;;16.25;12.38;;;;;;;-141.97;45.15;47373.00;5010587;28;20185;-81
2023/08/22 06:17:20;;;;;;;16.77;11.80;;;;;;;-141.97;44.29;47349.94;5010970;28;20217;-82
2023/08/22 06:19:48;;;;;;;14.20;11.07;;;;;;;-141.97;44.35;47338.41;5020650;28;20180;-80
2023/08/22 06:22:14;;;;;;;15.10;11.98;;;;;;;-141.97;44.39;47346.09;5020712;28;20186;-80
2023/08/22 06:24:39;;;;;;;13.00;11.18;;;;;;;-141.97;44.42;47361.47;5013873;28;20292;-82
2023/08/22 06:27:05;;;;;;;15.40;11.15;;;;;;;-141.97;44.01;47334.56;5017522;28;20171;-81
2023/08/22 06:29:32;;;;;;;16.75;11.15;;;;;;;-141.97;43.44;47342.25;5015755;28;20184;-80
2023/08/22 06:32:00;;;;;;;16.98;11.30;;;;;;;-141.97;42.71;47330.72;5001741;28;20719;-83
2023/08/22 06:34:26;;;;;;;15.82;10.60;;;;;;;-141.97;42.58;47334.56;5029238;28;20170;-79
2023/08/22 06:36:51;;;;;;;12.90;10.82;;;;;;;-141.97;42.21;47321.13;5040572;28;20166;-85
2023/08/22 06:39:17;;;;;;;13.65;10.38;;;;;;;-141.97;41.42;47346.09;5027147;28;20227;-81
2023/08/22 06:41:42;;;;;;;14.25;10.48;;;;;;;-141.97;40.83;47280.75;5025376;28;20175;-81
2023/08/22 06:44:09;;;;;;;13.70;10.32;;;;;;;-141.97;40.63;47319.19;5022828;28;20197;-81
2023/08/22 06:46:37;;;;;;;15.40;10.20;;;;;;;-141.97;40.28;47315.34;5020170;28;20177;-82
2023/08/22 06:49:05;;;;;;;12.70;9.90;;;;;;;-141.97;39.37;47349.94;5017671;28;20619;-82
2023/08/22 06:51:32;;;;;;;11.30;9.82;;;;;;;-141.97;39.19;47336.50;5019499;28;20329;-83
2023/08/22 06:53:57;;;;;;;13.55;10.20;;;;;;;-141.97;39.18;47323.03;5022471;28;20260;-82
2023/08/22 06:56:24;;;;;;;16.67;10.10;;;;;;;-141.97;38.93;47242.31;5023251;28;20163;-81
2023/08/22 06:58:49;;;;;;;16.33;10.65;;;;;;;-141.97;38.80;47298.06;5021957;28;20184;-83
2023/08/22 07:01:14;;;;;;;13.07;9.93;;;;;;;-141.97;38.72;47298.06;5019445;28;20274;-82
2023/08/22 07:03:41;;;;;;;11.82;10.02;;;;;;;-141.97;38.77;47317.28;5018795;28;20257;-80
2023/08/22 07:06:07;;;;;;;13.35;10.48;;;;;;;-141.97;38.58;47296.13;5025810;28;20181;-82
2023/08/22 07:08:32;;;;;;;12.98;10.20;;;;;;;-141.97;38.38;47334.56;5026839;28;20168;-81
2023/08/22 07:11:04;;;;;;;11.48;10.27;;;;;;;-141.97;37.97;47315.34;5029365;28;20189;-81
2023/08/22 07:13:30;;;;;;;17.80;10.40;;;;;;;-141.97;38.27;47292.28;5027995;28;20213;-82
2023/08/22 07:15:56;;;;;;;16.40;10.60;;;;;;;-141.97;37.48;47290.38;5028942;28;20641;-81
2023/08/22 07:18:21;;;;;;;15.07;10.40;;;;;;;-141.97;37.53;47288.44;5025241;28;20230;-81
2023/08/22 07:20:49;;;;;;;13.85;9.77;;;;;;;-141.97;37.88;47292.28;5028792;28;20187;-82
2023/08/22 07:23:14;;;;;;;13.02;10.57;;;;;;;-141.97;37.26;47286.53;5029337;28;20201;-81
2023/08/22 07:25:40;;;;;;;16.10;10.45;;;;;;;-141.97;37.07;47292.28;5031954;28;20169;-80
2023/08/22 07:28:05;;;;;;;14.70;10.43;;;;;;;-141.97;35.95;47244.25;5033460;28;20218;-81
2023/08/22 07:30:32;;;;;;;12.93;10.45;;;;;;;-141.97;36.65;47307.66;5031721;28;20163;-81
2023/08/22 07:32:58;;;;;;;14.13;10.07;;;;;;;-141.97;36.35;47273.06;5030632;28;20264;-82
2023/08/22 07:35:24;;;;;;;13.43;10.43;;;;;;;-141.97;35.64;47259.63;5032463;28;20656;-82
2023/08/22 07:37:49;;;;;;;12.23;9.73;;;;;;;-141.97;35.75;47278.84;5029602;28;20185;-82
2023/08/22 07:40:16;;;;;;;12.65;9.80;;;;;;;-141.97;35.45;47236.56;5028990;28;20170;-80
2023/08/22 07:42:42;;;;;;;13.57;9.98;;;;;;;-141.97;35.65;47267.31;5014179;28;20239;-82
2023/08/22 07:45:08;;;;;;;14.43;10.60;;;;;;;-141.97;35.58;47238.47;5030705;28;20169;-80
2023/08/22 07:47:33;;;;;;;12.50;9.93;;;;;;;-141.97;35.13;47276.91;5026794;28;20239;-83
2023/08/22 07:49:59;;;;;;;14.32;10.13;;;;;;;-141.97;34.69;47226.94;5022744;28;20324;-83
2023/08/22 07:52:24;;;;;;;11.45;9.43;;;;;;;-141.97;34.91;47278.84;5020536;28;20178;-81
2023/08/22 07:54:50;;;;;;;17.45;9.75;;;;;;;-141.97;34.50;47234.63;5024627;28;20175;-82
2023/08/22 07:57:15;;;;;;;11.40;9.38;;;;;;;-141.97;34.03;47244.25;5022737;28;20177;-81
2023/08/22 07:59:40;;;;;;;10.55;8.68;;;;;;;-141.97;33.47;47253.84;5015016;28;20163;-80
2023/08/22 08:02:06;;;;;;;14.20;10.18;;;;;;;-141.97;32.42;47203.88;5019004;28;20171;-81
2023/08/22 08:04:31;;;;;;;14.40;9.48;;;;;;;-141.97;32.51;47194.28;5017380;28;20728;-82
2023/08/22 08:06:56;;;;;;;15.98;8.98;;;;;;;-141.97;32.77;47248.09;5016175;28;20218;-81
2023/08/22 08:09:22;;;;;;;13.98;9.23;;;;;;;-141.97;32.28;47178.91;5015657;28;20634;-81
2023/08/22 08:11:47;;;;;;;11.75;9.40;;;;;;;-141.97;31.90;47200.03;5014722;28;20181;-81
2023/08/22 08:14:13;;;;;;;10.25;8.98;;;;;;;-141.97;31.69;47207.72;5015402;28;20177;-81
2023/08/22 08:16:38;;;;;;;14.77;10.00;;;;;;;-141.97;30.92;47200.03;5015136;28;20532;-82
2023/08/22 08:19:04;;;;;;;14.98;8.80;;;;;;;-141.97;31.06;46938.66;5015829;28;20159;-82
2023/08/22 08:21:30;;;;;;;11.13;8.80;;;;;;;-141.97;31.00;47196.19;5015656;28;20549;-82
2023/08/22 08:23:55;;;;;;;11.50;9.23;;;;;;;-141.97;30.98;47188.50;5019292;28;20233;-80
2023/08/22 08:26:20;;;;;;;13.75;9.13;;;;;;;-141.97;30.58;47203.88;5029591;28;20646;-81
2023/08/22 08:28:46;;;;;;;14.23;9.00;;;;;;;-141.97;30.60;47192.34;5019507;28;20166;-82
2023/08/22 08:31:12;;;;;;;11.48;8.65;;;;;;;-141.97;30.00;47146.22;5020193;28;20222;-81
2023/08/22 08:33:37;;;;;;;11.88;8.52;;;;;;;-141.97;29.69;47167.38;5024664;28;20163;-82
2023/08/22 08:36:04;;;;;;;11.00;8.48;;;;;;;-141.97;30.17;47173.13;5016706;28;20260;-82
2023/08/22 08:38:29;;;;;;;13.00;8.35;;;;;;;-141.97;29.76;47138.53;5015750;28;20225;-81
2023/08/22 08:40:59;;;;;;;11.70;8.25;;;;;;;-141.97;30.63;47200.03;5015360;28;20174;-81
2023/08/22 08:43:25;;;;;;;10.27;8.60;;;;;;;-141.97;31.32;47236.56;5015476;28;20598;-82
2023/08/22 08:45:51;;;;;;;10.02;8.43;;;;;;;-141.97;30.80;47188.50;5015828;28;20201;-81
2023/08/22 08:48:21;;;;;;;11.65;8.70;;;;;;;-141.97;30.02;47178.91;5016274;28;20874;-82
2023/08/22 08:50:48;;;;;;;11.48;8.40;;;;;;;-141.97;29.96;47188.50;5006081;28;20238;-81
2023/08/22 08:53:13;;;;;;;15.50;9.30;;;;;;;-141.97;30.41;47169.28;5016529;28;20750;-81
2023/08/22 08:55:40;;;;;;;12.32;9.02;;;;;;;-141.97;30.29;47182.75;5022074;28;20250;-82
2023/08/22 08:58:07;;;;;;;11.32;8.95;;;;;;;-141.97;29.80;47157.75;5016842;28;20167;-82
2023/08/22 09:00:33;;;;;;;14.13;8.77;;;;;;;-141.97;29.70;47150.06;5014140;28;20170;-82
2023/08/22 09:02:59;;;;;;;10.75;8.77;;;;;;;-141.97;30.00;47165.44;5015716;28;20261;-81
2023/08/22 09:05:25;;;;;;;15.43;9.27;;;;;;;-141.97;29.60;47150.06;5014499;28;20221;-81
2023/08/22 09:07:50;;;;;;;12.52;8.82;;;;;;;-141.97;29.61;47161.59;5014837;28;20191;-82
2023/08/22 09:10:35;;;;;;;10.05;8.93;;;;;;;-141.97;29.26;47169.28;5015988;28;20169;-81
2023/08/22 09:13:04;;;;;;;13.82;9.48;;;;;;;-141.97;29.47;47161.59;5015694;28;20177;-82
2023/08/22 09:15:30;;;;;;;11.52;8.90;;;;;;;-141.97;29.50;47115.47;5017061;28;20224;-82
2023/08/22 09:17:56;;;;;;;11.60;8.73;;;;;;;-141.97;28.68;47111.63;5015339;28;20177;-81
2023/08/22 09:20:22;;;;;;;13.35;9.32;;;;;;;-141.97;29.09;47080.88;5015129;28;20167;-82
2023/08/22 09:22:47;;;;;;;10.45;8.85;;;;;;;-141.97;29.19;47132.78;5016033;28;20250;-82
2023/08/22 09:25:14;;;;;;;10.00;8.75;;;;;;;-141.97;29.14;47117.41;5017663;28;20166;-81
2023/08/22 09:27:39;;;;;;;10.70;8.90;;;;;;;-141.97;29.15;47096.25;5014111;28;20182;-82
2023/08/22 09:30:06;;;;;;;11.25;8.88;;;;;;;-141.97;29.01;47125.09;5010739;28;20170;-81
2023/08/22 09:32:32;;;;;;;15.07;9.60;;;;;;;-141.97;29.57;47146.22;5016480;28;20167;-81
2023/08/22 09:35:00;;;;;;;10.70;8.52;;;;;;;-141.97;28.87;47150.06;5018852;28;20226;-81
2023/08/22 09:37:36;;;;;;;13.40;9.05;;;;;;;-141.97;28.88;47127.00;5022704;28;20171;-81
2023/08/22 09:40:07;;;;;;;12.07;9.13;;;;;;;-141.97;29.31;47111.63;5024458;28;20186;-81
2023/08/22 09:42:38;;;;;;;9.95;8.18;;;;;;;-141.97;28.42;47094.34;5019823;28;20171;-81
2023/08/22 09:45:04;;;;;;;11.20;8.73;;;;;;;-141.97;28.11;47103.94;5013291;28;20206;-82
2023/08/22 09:47:31;;;;;;;10.90;8.80;;;;;;;-141.97;28.26;47115.47;5017318;28;20197;-80
2023/08/22 09:50:00;;;;;;;12.95;8.75;;;;;;;-141.97;28.08;47380.69;5010598;28;20241;-80
2023/08/22 09:52:25;;;;;;;11.43;8.60;;;;;;;-141.97;28.87;47111.63;5015481;28;20281;-79
2023/08/22 09:54:52;;;;;;;10.88;8.55;;;;;;;-141.97;28.62;47092.41;5014391;28;20810;-81
2023/08/22 09:57:18;;;;;;;10.32;8.38;;;;;;;-141.97;28.45;47111.63;5017534;28;20181;-81
2023/08/22 09:59:45;;;;;;;11.25;8.27;;;;;;;-141.97;28.38;47117.41;5018937;28;20174;-80
2023/08/22 10:02:11;;;;;;;10.88;8.30;;;;;;;-141.97;29.04;47128.94;5019917;28;20233;-80
2023/08/22 10:04:36;;;;;;;9.38;8.38;;;;;;;-141.97;29.04;47134.69;5017646;28;20203;-80
2023/08/22 10:07:02;;;;;;;11.57;8.40;;;;;;;-141.97;28.69;47128.94;5016296;28;20163;-81
2023/08/22 10:09:27;;;;;;;11.77;8.35;;;;;;;-141.97;28.36;47134.69;5013751;28;20170;-80
2023/08/22 10:12:05;;;;;;;12.13;8.88;;;;;;;-141.97;28.73;47119.31;5014228;28;20194;-81
2023/08/22 10:14:57;;;;;;;9.50;8.43;;;;;;;-141.97;27.91;47132.78;5019861;28;20181;-81
2023/08/22 10:17:26;;;;;;;9.70;8.60;;;;;;;-141.97;28.58;47123.16;5026259;28;20181;-80
2023/08/22 10:19:52;;;;;;;12.70;8.68;;;;;;;-141.97;28.90;47138.53;5028860;28;20163;-79
2023/08/22 10:22:17;;;;;;;13.52;8.60;;;;;;;-141.97;28.35;47105.88;5026474;28;20177;-80
2023/08/22 10:24:48;;;;;;;10.10;8.90;;;;;;;-141.97;28.58;47105.88;5015826;28;20285;-82
2023/08/22 10:27:16;;;;;;;13.35;9.10;;;;;;;-141.97;29.23;47119.31;5012396;28;20171;-82
2023/08/22 10:29:45;;;;;;;10.48;8.93;;;;;;;-141.97;29.35;47138.53;5012073;28;20250;-82
2023/08/22 10:32:10;;;;;;;10.77;8.88;;;;;;;-141.97;28.90;47092.41;5018522;28;20163;-81
2023/08/22 10:34:38;;;;;;;9.70;8.70;;;;;;;-141.97;28.99;47115.47;5020176;28;20171;-81
2023/08/22 10:37:28;;;;;;;10.98;8.52;;;;;;;-141.97;28.88;47115.47;5016009;28;20277;-81
2023/08/22 10:39:58;;;;;;;14.95;9.00;;;;;;;-141.97;29.11;47123.16;5014697;28;20162;-79
2023/08/22 10:42:25;;;;;;;14.05;8.60;;;;;;;-141.97;28.98;47117.41;5013810;28;20248;-81
2023/08/22 10:44:57;;;;;;;10.25;9.05;;;;;;;-141.97;28.62;47123.16;5011499;28;20194;-81
2023/08/22 10:47:24;;;;;;;14.02;9.30;;;;;;;-141.97;29.19;47119.31;5011241;28;20194;-82
2023/08/22 10:49:55;;;;;;;13.73;8.73;;;;;;;-141.97;28.95;47127.00;5003850;28;20234;-83
2023/08/22 10:52:27;;;;;;;10.52;9.00;;;;;;;-141.97;28.72;47096.25;5010566;28;20514;-81
2023/08/22 10:55:03;;;;;;;12.10;8.65;;;;;;;-141.97;28.38;47121.25;5010401;28;20511;-81
2023/08/22 10:57:32;;;;;;;10.10;8.80;;;;;;;-141.97;28.69;47117.41;5014712;28;20166;-82
2023/08/22 11:00:07;;;;;;;10.10;8.82;;;;;;;-141.97;28.72;47144.31;5015143;28;20194;-82
2023/08/22 11:02:35;;;;;;;14.85;9.13;;;;;;;-141.97;28.80;47127.00;5021698;28;20162;-83